sensor_id;sensor_type;location;lat;lon;timestamp;temperature;humidity
75961;SHT30;64644;48.914;2.254;2023-02-15T00:01:29;9.48;65.69
75961;SHT30;64644;48.914;2.254;2023-02-15T00:03:55;9.47;65.67
75961;SHT30;64644;48.914;2.254;2023-02-15T00:06:20;9.43;65.72
75961;SHT30;64644;48.914;2.254;2023-02-15T00:08:46;9.40;65.75
75961;SHT30;64644;48.914;2.254;2023-02-15T00:11:16;9.37;65.85
75961;SHT30;64644;48.914;2.254;2023-02-15T00:14:13;9.33;65.88
75961;SHT30;64644;48.914;2.254;2023-02-15T00:16:40;9.30;65.89
75961;SHT30;64644;48.914;2.254;2023-02-15T00:19:06;9.28;65.96
75961;SHT30;64644;48.914;2.254;2023-02-15T00:21:33;9.26;65.89
75961;SHT30;64644;48.914;2.254;2023-02-15T00:24:01;9.22;66.06
75961;SHT30;64644;48.914;2.254;2023-02-15T00:26:27;9.23;66.13
75961;SHT30;64644;48.914;2.254;2023-02-15T00:28:53;9.20;66.12
75961;SHT30;64644;48.914;2.254;2023-02-15T00:31:19;9.17;66.16
75961;SHT30;64644;48.914;2.254;2023-02-15T00:33:44;9.16;66.19
75961;SHT30;64644;48.914;2.254;2023-02-15T00:36:10;9.16;66.23
75961;SHT30;64644;48.914;2.254;2023-02-15T00:38:36;9.10;66.24
75961;SHT30;64644;48.914;2.254;2023-02-15T00:41:03;9.12;66.25
75961;SHT30;64644;48.914;2.254;2023-02-15T00:43:30;9.08;66.25
75961;SHT30;64644;48.914;2.254;2023-02-15T00:45:55;9.06;66.26
75961;SHT30;64644;48.914;2.254;2023-02-15T00:48:21;9.06;66.23
75961;SHT30;64644;48.914;2.254;2023-02-15T00:50:49;9.03;66.20
75961;SHT30;64644;48.914;2.254;2023-02-15T00:53:15;9.02;66.34
75961;SHT30;64644;48.914;2.254;2023-02-15T00:55:41;9.00;66.49
75961;SHT30;64644;48.914;2.254;2023-02-15T00:58:07;9.00;66.47
75961;SHT30;64644;48.914;2.254;2023-02-15T01:00:33;8.95;66.41
75961;SHT30;64644;48.914;2.254;2023-02-15T01:02:59;8.96;66.45
75961;SHT30;64644;48.914;2.254;2023-02-15T01:05:24;8.93;66.49
75961;SHT30;64644;48.914;2.254;2023-02-15T01:07:50;8.93;66.53
75961;SHT30;64644;48.914;2.254;2023-02-15T01:10:16;8.89;66.54
75961;SHT30;64644;48.914;2.254;2023-02-15T01:12:41;8.88;66.52
75961;SHT30;64644;48.914;2.254;2023-02-15T01:15:07;8.86;66.63
75961;SHT30;64644;48.914;2.254;2023-02-15T01:17:33;8.86;66.63
75961;SHT30;64644;48.914;2.254;2023-02-15T01:19:58;8.82;66.68
75961;SHT30;64644;48.914;2.254;2023-02-15T01:22:24;8.85;66.74
75961;SHT30;64644;48.914;2.254;2023-02-15T01:24:50;8.84;66.79
75961;SHT30;64644;48.914;2.254;2023-02-15T01:27:15;8.82;66.96
75961;SHT30;64644;48.914;2.254;2023-02-15T01:29:40;8.79;66.98
75961;SHT30;64644;48.914;2.254;2023-02-15T01:32:06;8.81;66.95
75961;SHT30;64644;48.914;2.254;2023-02-15T01:34:31;8.79;67.00
75961;SHT30;64644;48.914;2.254;2023-02-15T01:36:57;8.79;67.13
75961;SHT30;64644;48.914;2.254;2023-02-15T01:39:22;8.79;67.21
75961;SHT30;64644;48.914;2.254;2023-02-15T01:41:47;8.76;67.27
75961;SHT30;64644;48.914;2.254;2023-02-15T01:47:12;8.74;67.50
75961;SHT30;64644;48.914;2.254;2023-02-15T01:49:39;8.75;67.17
75961;SHT30;64644;48.914;2.254;2023-02-15T01:52:08;8.75;67.27
75961;SHT30;64644;48.914;2.254;2023-02-15T01:54:37;8.74;67.26
75961;SHT30;64644;48.914;2.254;2023-02-15T01:57:07;8.75;67.01
75961;SHT30;64644;48.914;2.254;2023-02-15T01:59:35;8.74;67.11
75961;SHT30;64644;48.914;2.254;2023-02-15T02:02:03;8.71;67.01
75961;SHT30;64644;48.914;2.254;2023-02-15T02:04:50;8.72;66.82
75961;SHT30;64644;48.914;2.254;2023-02-15T02:07:19;8.71;66.74
75961;SHT30;64644;48.914;2.254;2023-02-15T02:09:46;8.69;66.62
75961;SHT30;64644;48.914;2.254;2023-02-15T02:12:12;8.65;66.64
75961;SHT30;64644;48.914;2.254;2023-02-15T02:14:38;8.67;66.57
75961;SHT30;64644;48.914;2.254;2023-02-15T02:22:43;8.60;66.45
75961;SHT30;64644;48.914;2.254;2023-02-15T02:31:00;8.48;66.49
75961;SHT30;64644;48.914;2.254;2023-02-15T02:36:29;8.43;66.36
75961;SHT30;64644;48.914;2.254;2023-02-15T02:41:40;8.34;66.42
75961;SHT30;64644;48.914;2.254;2023-02-15T02:44:21;8.30;66.36
75961;SHT30;64644;48.914;2.254;2023-02-15T02:49:38;8.26;66.40
75961;SHT30;64644;48.914;2.254;2023-02-15T02:52:31;8.19;66.40
75961;SHT30;64644;48.914;2.254;2023-02-15T02:54:52;8.14;66.38
75961;SHT30;64644;48.914;2.254;2023-02-15T02:57:18;8.13;66.42
75961;SHT30;64644;48.914;2.254;2023-02-15T02:59:46;8.09;66.53
75961;SHT30;64644;48.914;2.254;2023-02-15T03:02:37;8.03;66.50
75961;SHT30;64644;48.914;2.254;2023-02-15T03:05:08;8.05;66.57
75961;SHT30;64644;48.914;2.254;2023-02-15T03:07:35;7.99;66.63
75961;SHT30;64644;48.914;2.254;2023-02-15T03:10:04;7.95;66.71
75961;SHT30;64644;48.914;2.254;2023-02-15T03:12:39;7.95;66.77
75961;SHT30;64644;48.914;2.254;2023-02-15T03:15:16;7.92;66.79
75961;SHT30;64644;48.914;2.254;2023-02-15T03:17:51;7.88;66.76
75961;SHT30;64644;48.914;2.254;2023-02-15T03:20:28;7.89;66.76
75961;SHT30;64644;48.914;2.254;2023-02-15T03:22:58;7.85;66.85
75961;SHT30;64644;48.914;2.254;2023-02-15T03:25:30;7.85;66.86
75961;SHT30;64644;48.914;2.254;2023-02-15T03:28:05;7.82;66.91
75961;SHT30;64644;48.914;2.254;2023-02-15T03:30:32;7.81;66.85
75961;SHT30;64644;48.914;2.254;2023-02-15T03:33:00;7.75;66.92
75961;SHT30;64644;48.914;2.254;2023-02-15T03:35:33;7.74;67.01
75961;SHT30;64644;48.914;2.254;2023-02-15T03:38:06;7.70;67.00
75961;SHT30;64644;48.914;2.254;2023-02-15T03:40:44;7.70;67.13
75961;SHT30;64644;48.914;2.254;2023-02-15T03:46:27;7.64;67.18
75961;SHT30;64644;48.914;2.254;2023-02-15T03:49:01;7.66;67.26
75961;SHT30;64644;48.914;2.254;2023-02-15T03:51:32;7.61;67.26
75961;SHT30;64644;48.914;2.254;2023-02-15T03:54:01;7.63;67.36
75961;SHT30;64644;48.914;2.254;2023-02-15T03:56:27;7.60;67.31
75961;SHT30;64644;48.914;2.254;2023-02-15T03:58:52;7.60;67.37
75961;SHT30;64644;48.914;2.254;2023-02-15T04:04:36;7.56;67.35
75961;SHT30;64644;48.914;2.254;2023-02-15T04:07:04;7.54;67.39
75961;SHT30;64644;48.914;2.254;2023-02-15T04:09:30;7.54;67.36
75961;SHT30;64644;48.914;2.254;2023-02-15T04:12:14;7.51;67.23
75961;SHT30;64644;48.914;2.254;2023-02-15T04:14:39;7.50;67.30
75961;SHT30;64644;48.914;2.254;2023-02-15T04:17:23;7.47;67.34
75961;SHT30;64644;48.914;2.254;2023-02-15T04:19:49;7.49;67.36
75961;SHT30;64644;48.914;2.254;2023-02-15T04:22:33;7.44;67.44
75961;SHT30;64644;48.914;2.254;2023-02-15T04:25:17;7.43;67.40
75961;SHT30;64644;48.914;2.254;2023-02-15T04:27:44;7.43;67.50
75961;SHT30;64644;48.914;2.254;2023-02-15T04:30:12;7.40;67.38
75961;SHT30;64644;48.914;2.254;2023-02-15T04:32:38;7.40;67.50
75961;SHT30;64644;48.914;2.254;2023-02-15T04:35:05;7.39;67.51
75961;SHT30;64644;48.914;2.254;2023-02-15T04:37:31;7.36;67.51
75961;SHT30;64644;48.914;2.254;2023-02-15T04:39:56;7.36;67.58
75961;SHT30;64644;48.914;2.254;2023-02-15T04:42:24;7.34;67.48
75961;SHT30;64644;48.914;2.254;2023-02-15T04:44:50;7.36;67.46
75961;SHT30;64644;48.914;2.254;2023-02-15T04:47:15;7.32;67.50
75961;SHT30;64644;48.914;2.254;2023-02-15T04:49:41;7.30;67.39
75961;SHT30;64644;48.914;2.254;2023-02-15T04:52:06;7.30;67.43
75961;SHT30;64644;48.914;2.254;2023-02-15T04:54:31;7.26;67.43
75961;SHT30;64644;48.914;2.254;2023-02-15T04:56:57;7.24;67.50
75961;SHT30;64644;48.914;2.254;2023-02-15T04:59:22;7.22;67.35
75961;SHT30;64644;48.914;2.254;2023-02-15T05:01:48;7.20;67.25
75961;SHT30;64644;48.914;2.254;2023-02-15T05:04:13;7.16;67.32
75961;SHT30;64644;48.914;2.254;2023-02-15T05:06:39;7.15;67.32
75961;SHT30;64644;48.914;2.254;2023-02-15T05:09:04;7.11;67.42
75961;SHT30;64644;48.914;2.254;2023-02-15T05:11:30;7.06;67.41
75961;SHT30;64644;48.914;2.254;2023-02-15T05:13:55;7.06;67.45
75961;SHT30;64644;48.914;2.254;2023-02-15T05:16:20;7.04;67.48
75961;SHT30;64644;48.914;2.254;2023-02-15T05:18:46;7.02;67.45
75961;SHT30;64644;48.914;2.254;2023-02-15T05:21:11;6.96;67.55
75961;SHT30;64644;48.914;2.254;2023-02-15T05:23:38;6.98;67.60
75961;SHT30;64644;48.914;2.254;2023-02-15T05:26:04;6.92;67.64
75961;SHT30;64644;48.914;2.254;2023-02-15T05:28:48;6.92;67.66
75961;SHT30;64644;48.914;2.254;2023-02-15T05:31:18;6.89;67.72
75961;SHT30;64644;48.914;2.254;2023-02-15T05:33:44;6.85;67.68
75961;SHT30;64644;48.914;2.254;2023-02-15T05:36:10;6.84;67.70
75961;SHT30;64644;48.914;2.254;2023-02-15T05:38:36;6.84;67.77
75961;SHT30;64644;48.914;2.254;2023-02-15T05:41:05;6.81;67.79
75961;SHT30;64644;48.914;2.254;2023-02-15T05:43:31;6.76;67.90
75961;SHT30;64644;48.914;2.254;2023-02-15T05:45:57;6.78;67.99
75961;SHT30;64644;48.914;2.254;2023-02-15T05:48:24;6.74;68.09
75961;SHT30;64644;48.914;2.254;2023-02-15T05:51:04;6.76;68.12
75961;SHT30;64644;48.914;2.254;2023-02-15T05:53:31;6.73;68.23
75961;SHT30;64644;48.914;2.254;2023-02-15T05:55:57;6.73;68.29
75961;SHT30;64644;48.914;2.254;2023-02-15T05:58:28;6.68;68.35
75961;SHT30;64644;48.914;2.254;2023-02-15T06:00:55;6.68;68.37
75961;SHT30;64644;48.914;2.254;2023-02-15T06:03:20;6.70;68.47
75961;SHT30;64644;48.914;2.254;2023-02-15T06:05:46;6.66;68.50
75961;SHT30;64644;48.914;2.254;2023-02-15T06:08:11;6.67;68.61
75961;SHT30;64644;48.914;2.254;2023-02-15T06:10:37;6.68;68.60
75961;SHT30;64644;48.914;2.254;2023-02-15T06:13:02;6.66;68.62
75961;SHT30;64644;48.914;2.254;2023-02-15T06:15:29;6.68;68.65
75961;SHT30;64644;48.914;2.254;2023-02-15T06:17:54;6.67;68.68
75961;SHT30;64644;48.914;2.254;2023-02-15T06:20:19;6.67;68.73
75961;SHT30;64644;48.914;2.254;2023-02-15T06:22:45;6.66;68.80
75961;SHT30;64644;48.914;2.254;2023-02-15T06:25:11;6.68;68.87
75961;SHT30;64644;48.914;2.254;2023-02-15T06:27:37;6.67;68.89
75961;SHT30;64644;48.914;2.254;2023-02-15T06:30:04;6.67;68.92
75961;SHT30;64644;48.914;2.254;2023-02-15T06:32:31;6.66;68.80
75961;SHT30;64644;48.914;2.254;2023-02-15T06:34:56;6.70;68.95
75961;SHT30;64644;48.914;2.254;2023-02-15T06:37:21;6.68;68.97
75961;SHT30;64644;48.914;2.254;2023-02-15T06:39:47;6.70;68.98
75961;SHT30;64644;48.914;2.254;2023-02-15T06:42:12;6.70;69.03
75961;SHT30;64644;48.914;2.254;2023-02-15T06:44:37;6.76;69.06
75961;SHT30;64644;48.914;2.254;2023-02-15T06:47:03;6.73;69.15
75961;SHT30;64644;48.914;2.254;2023-02-15T06:49:28;6.74;69.16
75961;SHT30;64644;48.914;2.254;2023-02-15T06:51:54;6.77;69.04
75961;SHT30;64644;48.914;2.254;2023-02-15T06:54:19;6.74;69.14
75961;SHT30;64644;48.914;2.254;2023-02-15T06:56:44;6.76;69.18
75961;SHT30;64644;48.914;2.254;2023-02-15T06:59:10;6.78;69.21
75961;SHT30;64644;48.914;2.254;2023-02-15T07:01:35;6.80;69.05
75961;SHT30;64644;48.914;2.254;2023-02-15T07:04:02;6.80;68.98
75961;SHT30;64644;48.914;2.254;2023-02-15T07:06:31;6.80;68.70
75961;SHT30;64644;48.914;2.254;2023-02-15T07:08:56;6.80;68.86
75961;SHT30;64644;48.914;2.254;2023-02-15T07:11:22;6.80;68.77
75961;SHT30;64644;48.914;2.254;2023-02-15T07:14:06;6.80;68.85
75961;SHT30;64644;48.914;2.254;2023-02-15T07:16:31;6.83;68.71
75961;SHT30;64644;48.914;2.254;2023-02-15T07:18:57;6.87;68.55
75961;SHT30;64644;48.914;2.254;2023-02-15T07:21:22;6.85;68.46
75961;SHT30;64644;48.914;2.254;2023-02-15T07:23:47;6.87;68.52
75961;SHT30;64644;48.914;2.254;2023-02-15T07:26:13;6.87;68.51
75961;SHT30;64644;48.914;2.254;2023-02-15T07:28:38;6.89;68.43
75961;SHT30;64644;48.914;2.254;2023-02-15T07:31:04;6.88;68.52
75961;SHT30;64644;48.914;2.254;2023-02-15T07:33:31;6.88;68.51
75961;SHT30;64644;48.914;2.254;2023-02-15T07:35:58;6.94;68.59
75961;SHT30;64644;48.914;2.254;2023-02-15T07:38:25;6.94;68.56
75961;SHT30;64644;48.914;2.254;2023-02-15T07:40:57;6.98;68.56
75961;SHT30;64644;48.914;2.254;2023-02-15T07:43:23;7.02;68.52
75961;SHT30;64644;48.914;2.254;2023-02-15T07:45:48;7.04;68.55
75961;SHT30;64644;48.914;2.254;2023-02-15T07:48:13;7.06;68.53
75961;SHT30;64644;48.914;2.254;2023-02-15T07:50:39;7.13;68.44
75961;SHT30;64644;48.914;2.254;2023-02-15T07:53:04;7.16;68.48
75961;SHT30;64644;48.914;2.254;2023-02-15T07:55:30;7.18;68.50
75961;SHT30;64644;48.914;2.254;2023-02-15T07:57:55;7.22;68.54
75961;SHT30;64644;48.914;2.254;2023-02-15T08:00:22;7.30;68.52
75961;SHT30;64644;48.914;2.254;2023-02-15T08:02:56;7.33;68.56
75961;SHT30;64644;48.914;2.254;2023-02-15T08:05:42;7.39;68.55
75961;SHT30;64644;48.914;2.254;2023-02-15T08:08:09;7.44;68.51
75961;SHT30;64644;48.914;2.254;2023-02-15T08:13:45;7.51;68.36
75961;SHT30;64644;48.914;2.254;2023-02-15T08:16:27;7.54;68.33
75961;SHT30;64644;48.914;2.254;2023-02-15T08:18:53;7.57;68.22
75961;SHT30;64644;48.914;2.254;2023-02-15T08:21:20;7.58;68.08
75961;SHT30;64644;48.914;2.254;2023-02-15T08:23:46;7.57;68.13
75961;SHT30;64644;48.914;2.254;2023-02-15T08:26:11;7.57;68.25
75961;SHT30;64644;48.914;2.254;2023-02-15T08:28:37;7.58;68.33
75961;SHT30;64644;48.914;2.254;2023-02-15T08:31:10;7.61;68.31
75961;SHT30;64644;48.914;2.254;2023-02-15T08:33:36;7.67;68.32
75961;SHT30;64644;48.914;2.254;2023-02-15T08:36:07;7.67;68.09
75961;SHT30;64644;48.914;2.254;2023-02-15T08:38:33;7.67;68.07
75961;SHT30;64644;48.914;2.254;2023-02-15T08:43:41;7.74;68.08
75961;SHT30;64644;48.914;2.254;2023-02-15T08:46:08;7.79;68.21
75961;SHT30;64644;48.914;2.254;2023-02-15T08:48:34;7.84;68.21
75961;SHT30;64644;48.914;2.254;2023-02-15T08:51:07;7.89;68.16
75961;SHT30;64644;48.914;2.254;2023-02-15T08:53:33;7.95;68.19
75961;SHT30;64644;48.914;2.254;2023-02-15T08:55:59;7.99;68.19
75961;SHT30;64644;48.914;2.254;2023-02-15T08:58:25;8.06;68.20
75961;SHT30;64644;48.914;2.254;2023-02-15T09:00:51;8.12;68.08
75961;SHT30;64644;48.914;2.254;2023-02-15T09:03:17;8.14;68.18
75961;SHT30;64644;48.914;2.254;2023-02-15T09:05:42;8.23;68.15
75961;SHT30;64644;48.914;2.254;2023-02-15T09:08:08;8.30;68.08
75961;SHT30;64644;48.914;2.254;2023-02-15T09:10:33;8.34;68.09
75961;SHT30;64644;48.914;2.254;2023-02-15T09:12:58;8.40;67.94
75961;SHT30;64644;48.914;2.254;2023-02-15T09:15:24;8.46;68.07
75961;SHT30;64644;48.914;2.254;2023-02-15T09:17:49;8.53;67.87
75961;SHT30;64644;48.914;2.254;2023-02-15T09:20:14;8.58;67.74
75961;SHT30;64644;48.914;2.254;2023-02-15T09:22:40;8.65;67.74
75961;SHT30;64644;48.914;2.254;2023-02-15T09:25:06;8.71;67.69
75961;SHT30;64644;48.914;2.254;2023-02-15T09:27:31;8.78;67.65
75961;SHT30;64644;48.914;2.254;2023-02-15T09:29:56;8.86;67.52
75961;SHT30;64644;48.914;2.254;2023-02-15T09:32:22;8.89;67.38
75961;SHT30;64644;48.914;2.254;2023-02-15T09:34:47;8.95;67.38
75961;SHT30;64644;48.914;2.254;2023-02-15T09:37:13;9.02;67.49
75961;SHT30;64644;48.914;2.254;2023-02-15T09:39:41;9.12;67.19
75961;SHT30;64644;48.914;2.254;2023-02-15T09:56:02;9.50;66.68
75961;SHT30;64644;48.914;2.254;2023-02-15T10:01:24;9.65;66.92
75961;SHT30;64644;48.914;2.254;2023-02-15T10:18:25;10.17;65.94
75961;SHT30;64644;48.914;2.254;2023-02-15T10:21:02;10.24;65.69
75961;SHT30;64644;48.914;2.254;2023-02-15T10:24:06;10.32;65.63
75961;SHT30;64644;48.914;2.254;2023-02-15T10:27:22;10.40;65.45
75961;SHT30;64644;48.914;2.254;2023-02-15T10:30:10;10.52;65.42
75961;SHT30;64644;48.914;2.254;2023-02-15T10:33:09;10.60;65.30
75961;SHT30;64644;48.914;2.254;2023-02-15T10:35:38;10.69;65.21
75961;SHT30;64644;48.914;2.254;2023-02-15T10:44:03;11.06;64.64
75961;SHT30;64644;48.914;2.254;2023-02-15T11:02:46;11.85;63.23
75961;SHT30;64644;48.914;2.254;2023-02-15T11:05:34;11.99;63.33
75961;SHT30;64644;48.914;2.254;2023-02-15T11:08:04;12.10;63.19
75961;SHT30;64644;48.914;2.254;2023-02-15T11:13:07;12.34;62.65
75961;SHT30;64644;48.914;2.254;2023-02-15T11:15:39;12.47;62.53
75961;SHT30;64644;48.914;2.254;2023-02-15T11:18:25;12.59;62.42
75961;SHT30;64644;48.914;2.254;2023-02-15T11:20:56;12.71;62.17
75961;SHT30;64644;48.914;2.254;2023-02-15T11:23:24;12.81;62.00
75961;SHT30;64644;48.914;2.254;2023-02-15T11:26:21;12.89;62.09
75961;SHT30;64644;48.914;2.254;2023-02-15T11:28:55;13.00;61.69
75961;SHT30;64644;48.914;2.254;2023-02-15T11:31:26;13.07;61.20
75961;SHT30;64644;48.914;2.254;2023-02-15T11:33:56;13.20;61.20
75961;SHT30;64644;48.914;2.254;2023-02-15T11:36:35;13.36;60.92
75961;SHT30;64644;48.914;2.254;2023-02-15T11:39:15;13.48;60.72
75961;SHT30;64644;48.914;2.254;2023-02-15T11:41:45;13.59;60.22
75961;SHT30;64644;48.914;2.254;2023-02-15T11:44:16;13.69;60.28
75961;SHT30;64644;48.914;2.254;2023-02-15T11:46:44;13.82;60.16
75961;SHT30;64644;48.914;2.254;2023-02-15T11:49:26;13.89;59.64
75961;SHT30;64644;48.914;2.254;2023-02-15T11:51:53;13.95;59.76
75961;SHT30;64644;48.914;2.254;2023-02-15T11:54:26;14.05;59.61
75961;SHT30;64644;48.914;2.254;2023-02-15T11:56:56;14.13;59.32
75961;SHT30;64644;48.914;2.254;2023-02-15T11:59:30;14.18;59.32
75961;SHT30;64644;48.914;2.254;2023-02-15T12:01:57;14.27;59.15
75961;SHT30;64644;48.914;2.254;2023-02-15T12:04:28;14.37;59.36
75961;SHT30;64644;48.914;2.254;2023-02-15T12:06:59;14.41;58.44
75961;SHT30;64644;48.914;2.254;2023-02-15T12:12:36;14.58;57.66
75961;SHT30;64644;48.914;2.254;2023-02-15T12:15:07;14.67;58.20
75961;SHT30;64644;48.914;2.254;2023-02-15T12:17:51;14.72;58.09
75961;SHT30;64644;48.914;2.254;2023-02-15T12:22:51;14.89;57.79
75961;SHT30;64644;48.914;2.254;2023-02-15T12:26:10;14.97;57.47
75961;SHT30;64644;48.914;2.254;2023-02-15T12:28:48;15.00;56.88
75961;SHT30;64644;48.914;2.254;2023-02-15T12:31:27;15.04;56.71
75961;SHT30;64644;48.914;2.254;2023-02-15T12:33:57;15.08;57.32
75961;SHT30;64644;48.914;2.254;2023-02-15T12:36:27;15.08;56.14
75961;SHT30;64644;48.914;2.254;2023-02-15T12:39:50;15.13;56.32
75961;SHT30;64644;48.914;2.254;2023-02-15T12:44:30;15.23;55.07
75961;SHT30;64644;48.914;2.254;2023-02-15T12:49:28;15.27;56.22
75961;SHT30;64644;48.914;2.254;2023-02-15T12:51:54;15.30;55.81
75961;SHT30;64644;48.914;2.254;2023-02-15T12:57:31;15.28;56.03
75961;SHT30;64644;48.914;2.254;2023-02-15T13:00:00;15.28;55.48
75961;SHT30;64644;48.914;2.254;2023-02-15T13:02:50;15.30;55.96
75961;SHT30;64644;48.914;2.254;2023-02-15T13:07:49;15.30;56.75
75961;SHT30;64644;48.914;2.254;2023-02-15T13:10:32;15.27;56.38
75961;SHT30;64644;48.914;2.254;2023-02-15T13:12:59;15.30;54.91
75961;SHT30;64644;48.914;2.254;2023-02-15T13:15:37;15.31;55.49
75961;SHT30;64644;48.914;2.254;2023-02-15T13:18:05;15.31;54.75
75961;SHT30;64644;48.914;2.254;2023-02-15T13:20:36;15.35;55.75
75961;SHT30;64644;48.914;2.254;2023-02-15T13:23:05;15.37;55.91
75961;SHT30;64644;48.914;2.254;2023-02-15T13:25:42;15.38;56.43
75961;SHT30;64644;48.914;2.254;2023-02-15T13:28:13;15.40;55.81
75961;SHT30;64644;48.914;2.254;2023-02-15T13:30:45;15.38;55.50
75961;SHT30;64644;48.914;2.254;2023-02-15T13:36:09;15.38;55.57
75961;SHT30;64644;48.914;2.254;2023-02-15T13:41:30;15.37;55.23
75961;SHT30;64644;48.914;2.254;2023-02-15T13:57:24;15.31;55.19
75961;SHT30;64644;48.914;2.254;2023-02-15T14:03:00;15.27;54.85
75961;SHT30;64644;48.914;2.254;2023-02-15T14:05:36;15.26;54.79
75961;SHT30;64644;48.914;2.254;2023-02-15T14:11:08;15.23;55.48
75961;SHT30;64644;48.914;2.254;2023-02-15T14:14:08;15.21;55.26
75961;SHT30;64644;48.914;2.254;2023-02-15T14:16:48;15.20;55.02
75961;SHT30;64644;48.914;2.254;2023-02-15T14:19:28;15.17;55.01
75961;SHT30;64644;48.914;2.254;2023-02-15T14:32:20;15.08;55.14
75961;SHT30;64644;48.914;2.254;2023-02-15T14:34:52;15.08;55.05
75961;SHT30;64644;48.914;2.254;2023-02-15T14:37:31;15.04;54.92
75961;SHT30;64644;48.914;2.254;2023-02-15T14:43:01;15.07;55.09
75961;SHT30;64644;48.914;2.254;2023-02-15T14:46:11;15.07;55.32
75961;SHT30;64644;48.914;2.254;2023-02-15T14:48:50;15.06;54.99
75961;SHT30;64644;48.914;2.254;2023-02-15T14:56:42;15.08;55.02
75961;SHT30;64644;48.914;2.254;2023-02-15T14:59:19;15.10;55.24
75961;SHT30;64644;48.914;2.254;2023-02-15T15:02:00;15.07;55.11
75961;SHT30;64644;48.914;2.254;2023-02-15T15:20:48;15.06;55.04
75961;SHT30;64644;48.914;2.254;2023-02-15T15:25:48;15.04;55.38
75961;SHT30;64644;48.914;2.254;2023-02-15T15:39:39;15.00;55.02
75961;SHT30;64644;48.914;2.254;2023-02-15T15:47:49;14.89;55.96
75961;SHT30;64644;48.914;2.254;2023-02-15T15:50:19;14.86;56.32
75961;SHT30;64644;48.914;2.254;2023-02-15T15:52:49;14.82;55.92
75961;SHT30;64644;48.914;2.254;2023-02-15T15:55:17;14.73;55.69
75961;SHT30;64644;48.914;2.254;2023-02-15T15:57:46;14.72;56.52
75961;SHT30;64644;48.914;2.254;2023-02-15T16:00:33;14.62;56.58
75961;SHT30;64644;48.914;2.254;2023-02-15T16:02:59;14.58;56.97
75961;SHT30;64644;48.914;2.254;2023-02-15T16:05:25;14.51;57.10
75961;SHT30;64644;48.914;2.254;2023-02-15T16:07:50;14.44;57.24
75961;SHT30;64644;48.914;2.254;2023-02-15T16:10:34;14.38;57.08
75961;SHT30;64644;48.914;2.254;2023-02-15T16:13:01;14.31;57.69
75961;SHT30;64644;48.914;2.254;2023-02-15T16:15:42;14.26;56.93
75961;SHT30;64644;48.914;2.254;2023-02-15T16:18:13;14.20;57.24
75961;SHT30;64644;48.914;2.254;2023-02-15T16:20:40;14.18;57.62
75961;SHT30;64644;48.914;2.254;2023-02-15T16:23:19;14.10;57.28
75961;SHT30;64644;48.914;2.254;2023-02-15T16:26:14;14.07;57.04
75961;SHT30;64644;48.914;2.254;2023-02-15T16:28:50;14.03;57.38
75961;SHT30;64644;48.914;2.254;2023-02-15T16:31:17;14.00;58.10
75961;SHT30;64644;48.914;2.254;2023-02-15T16:33:44;13.98;58.45
75961;SHT30;64644;48.914;2.254;2023-02-15T16:41:15;13.82;57.89
75961;SHT30;64644;48.914;2.254;2023-02-15T16:43:44;13.79;58.27
75961;SHT30;64644;48.914;2.254;2023-02-15T16:46:14;13.73;58.27
75961;SHT30;64644;48.914;2.254;2023-02-15T16:48:46;13.72;58.32
75961;SHT30;64644;48.914;2.254;2023-02-15T16:51:28;13.69;58.03
75961;SHT30;64644;48.914;2.254;2023-02-15T16:53:56;13.64;58.70
75961;SHT30;64644;48.914;2.254;2023-02-15T16:56:27;13.64;58.81
75961;SHT30;64644;48.914;2.254;2023-02-15T16:58:56;13.57;58.56
75961;SHT30;64644;48.914;2.254;2023-02-15T17:01:24;13.55;58.39
75961;SHT30;64644;48.914;2.254;2023-02-15T17:04:12;13.54;58.49
75961;SHT30;64644;48.914;2.254;2023-02-15T17:06:38;13.51;58.68
75961;SHT30;64644;48.914;2.254;2023-02-15T17:09:14;13.51;58.91
75961;SHT30;64644;48.914;2.254;2023-02-15T17:11:43;13.47;58.99
75961;SHT30;64644;48.914;2.254;2023-02-15T17:16:49;13.37;59.50
75961;SHT30;64644;48.914;2.254;2023-02-15T17:19:28;13.34;59.59
75961;SHT30;64644;48.914;2.254;2023-02-15T17:21:55;13.28;59.73
75961;SHT30;64644;48.914;2.254;2023-02-15T17:26:58;13.21;60.02
75961;SHT30;64644;48.914;2.254;2023-02-15T17:29:30;13.20;59.86
75961;SHT30;64644;48.914;2.254;2023-02-15T17:31:57;13.16;59.97
75961;SHT30;64644;48.914;2.254;2023-02-15T17:34:42;13.10;60.36
75961;SHT30;64644;48.914;2.254;2023-02-15T17:42:41;12.96;60.53
75961;SHT30;64644;48.914;2.254;2023-02-15T17:45:07;12.91;60.64
75961;SHT30;64644;48.914;2.254;2023-02-15T17:47:32;12.89;60.80
75961;SHT30;64644;48.914;2.254;2023-02-15T17:50:01;12.83;60.70
75961;SHT30;64644;48.914;2.254;2023-02-15T17:52:28;12.82;60.67
75961;SHT30;64644;48.914;2.254;2023-02-15T17:54:54;12.79;60.94
75961;SHT30;64644;48.914;2.254;2023-02-15T17:57:38;12.74;61.16
75961;SHT30;64644;48.914;2.254;2023-02-15T18:00:05;12.74;61.26
75961;SHT30;64644;48.914;2.254;2023-02-15T18:02:49;12.68;61.26
75961;SHT30;64644;48.914;2.254;2023-02-15T18:05:34;12.65;61.32
75961;SHT30;64644;48.914;2.254;2023-02-15T18:08:26;12.62;61.58
75961;SHT30;64644;48.914;2.254;2023-02-15T18:11:11;12.55;61.60
75961;SHT30;64644;48.914;2.254;2023-02-15T18:13:55;12.52;61.82
75961;SHT30;64644;48.914;2.254;2023-02-15T18:16:26;12.49;62.02
75961;SHT30;64644;48.914;2.254;2023-02-15T18:18:53;12.47;62.03
75961;SHT30;64644;48.914;2.254;2023-02-15T18:21:19;12.40;62.11
75961;SHT30;64644;48.914;2.254;2023-02-15T18:23:44;12.36;62.18
75961;SHT30;64644;48.914;2.254;2023-02-15T18:26:17;12.31;62.24
75961;SHT30;64644;48.914;2.254;2023-02-15T18:28:43;12.27;62.46
75961;SHT30;64644;48.914;2.254;2023-02-15T18:31:09;12.23;62.40
75961;SHT30;64644;48.914;2.254;2023-02-15T18:33:38;12.21;62.55
75961;SHT30;64644;48.914;2.254;2023-02-15T18:36:06;12.17;62.60
75961;SHT30;64644;48.914;2.254;2023-02-15T18:38:32;12.13;62.62
75961;SHT30;64644;48.914;2.254;2023-02-15T18:40:59;12.10;62.89
75961;SHT30;64644;48.914;2.254;2023-02-15T18:43:26;12.10;62.78
75961;SHT30;64644;48.914;2.254;2023-02-15T18:45:51;12.06;62.93
75961;SHT30;64644;48.914;2.254;2023-02-15T18:48:16;12.03;62.97
75961;SHT30;64644;48.914;2.254;2023-02-15T18:50:42;12.00;62.98
75961;SHT30;64644;48.914;2.254;2023-02-15T18:53:15;11.96;63.01
75961;SHT30;64644;48.914;2.254;2023-02-15T18:55:41;11.96;63.03
75961;SHT30;64644;48.914;2.254;2023-02-15T18:58:15;11.96;63.25
75961;SHT30;64644;48.914;2.254;2023-02-15T19:00:48;11.96;63.18
75961;SHT30;64644;48.914;2.254;2023-02-15T19:03:16;11.95;62.86
75961;SHT30;64644;48.914;2.254;2023-02-15T19:05:44;11.97;62.59
75961;SHT30;64644;48.914;2.254;2023-02-15T19:08:21;12.00;62.53
75961;SHT30;64644;48.914;2.254;2023-02-15T19:10:49;12.06;62.33
75961;SHT30;64644;48.914;2.254;2023-02-15T19:13:15;12.13;62.20
75961;SHT30;64644;48.914;2.254;2023-02-15T19:15:42;12.16;62.19
75961;SHT30;64644;48.914;2.254;2023-02-15T19:18:08;12.24;61.87
75961;SHT30;64644;48.914;2.254;2023-02-15T19:20:42;12.29;61.99
75961;SHT30;64644;48.914;2.254;2023-02-15T19:23:18;12.34;61.67